KOCF/OCF METAR and TAF weather

Enter ICAO airport designator
Station Type Date Time Source
KOCF METAR 2019/06/27 09:51 UTC NOAA

KOCF 270951Z AUTO 03003KT 10SM SCT050 BKN070 23/22 A3011 RMK AO2 SLP196 T02330217 $


Station Type Date Time Source
KOCF Decoded METAR 2019/06/27 09:51 UTC NOAA

Ocala, Ocala International Airport-Jim Taylor Field, FL, United States (KOCF) 29-10N 082-13W
Jun 27, 2019 - 05:51 AM EDT / 2019.06.27 0951 UTC
Wind: from the NNE (030 degrees) at 3 MPH (3 KT):0
Visibility: 10 mile(s):0
Sky conditions: mostly cloudy
Temperature: 73.9 F (23.3 C)
Dew Point: 71.1 F (21.7 C)
Relative Humidity: 90%
Pressure (altimeter): 30.11 in. Hg (1019 hPa)
ob: KOCF 270951Z AUTO 03003KT 10SM SCT050 BKN070 23/22 A3011 RMK AO2 SLP196 T02330217
cycle: 10

Station Type Date Time Source
KOCF TAF UTC NOAA

Error!

Example: see airport list